sensor_id;sensor_type;location;lat;lon;timestamp;P1;durP1;ratioP1;P2;durP2;ratioP2
15198;SDS011;7700;48.654;9.070;2023-03-01T00:01:51;16.13;;;13.23;;
15198;SDS011;7700;48.654;9.070;2023-03-01T00:04:17;15.37;;;12.83;;
15198;SDS011;7700;48.654;9.070;2023-03-01T00:06:43;17.47;;;13.20;;
15198;SDS011;7700;48.654;9.070;2023-03-01T00:09:13;15.67;;;12.93;;
15198;SDS011;7700;48.654;9.070;2023-03-01T00:11:39;13.57;;;12.07;;
15198;SDS011;7700;48.654;9.070;2023-03-01T00:14:05;15.07;;;12.67;;
15198;SDS011;7700;48.654;9.070;2023-03-01T00:16:33;15.07;;;12.93;;
15198;SDS011;7700;48.654;9.070;2023-03-01T00:18:59;16.23;;;13.07;;
15198;SDS011;7700;48.654;9.070;2023-03-01T00:21:26;16.07;;;12.23;;
15198;SDS011;7700;48.654;9.070;2023-03-01T00:23:52;15.13;;;12.63;;
15198;SDS011;7700;48.654;9.070;2023-03-01T00:26:19;15.27;;;12.27;;
15198;SDS011;7700;48.654;9.070;2023-03-01T00:28:46;15.87;;;12.43;;
15198;SDS011;7700;48.654;9.070;2023-03-01T00:31:13;16.80;;;13.40;;
15198;SDS011;7700;48.654;9.070;2023-03-01T00:33:40;15.43;;;12.17;;
15198;SDS011;7700;48.654;9.070;2023-03-01T00:36:06;13.57;;;11.57;;
15198;SDS011;7700;48.654;9.070;2023-03-01T00:38:36;15.17;;;12.07;;
15198;SDS011;7700;48.654;9.070;2023-03-01T00:41:06;15.40;;;13.07;;
15198;SDS011;7700;48.654;9.070;2023-03-01T00:43:32;14.87;;;12.77;;
15198;SDS011;7700;48.654;9.070;2023-03-01T00:46:02;15.77;;;12.80;;
15198;SDS011;7700;48.654;9.070;2023-03-01T00:48:28;16.67;;;13.00;;
15198;SDS011;7700;48.654;9.070;2023-03-01T00:50:54;15.93;;;12.60;;
15198;SDS011;7700;48.654;9.070;2023-03-01T00:53:20;15.37;;;12.60;;
15198;SDS011;7700;48.654;9.070;2023-03-01T00:55:46;16.57;;;13.50;;
15198;SDS011;7700;48.654;9.070;2023-03-01T00:58:12;17.77;;;13.03;;
15198;SDS011;7700;48.654;9.070;2023-03-01T01:00:38;18.73;;;12.50;;
15198;SDS011;7700;48.654;9.070;2023-03-01T01:03:04;16.77;;;13.33;;
15198;SDS011;7700;48.654;9.070;2023-03-01T01:05:30;16.63;;;11.87;;
15198;SDS011;7700;48.654;9.070;2023-03-01T01:07:56;16.93;;;12.47;;
15198;SDS011;7700;48.654;9.070;2023-03-01T01:10:22;18.47;;;13.67;;
15198;SDS011;7700;48.654;9.070;2023-03-01T01:12:48;15.23;;;12.50;;
15198;SDS011;7700;48.654;9.070;2023-03-01T01:15:14;15.30;;;12.20;;
15198;SDS011;7700;48.654;9.070;2023-03-01T01:17:41;16.60;;;12.47;;
15198;SDS011;7700;48.654;9.070;2023-03-01T01:20:07;14.33;;;12.37;;
15198;SDS011;7700;48.654;9.070;2023-03-01T01:22:34;15.97;;;12.27;;
15198;SDS011;7700;48.654;9.070;2023-03-01T01:24:59;14.73;;;12.27;;
15198;SDS011;7700;48.654;9.070;2023-03-01T01:27:25;15.40;;;12.17;;
15198;SDS011;7700;48.654;9.070;2023-03-01T01:29:52;15.77;;;12.13;;
15198;SDS011;7700;48.654;9.070;2023-03-01T01:32:18;15.27;;;12.63;;
15198;SDS011;7700;48.654;9.070;2023-03-01T01:34:44;17.53;;;13.60;;
15198;SDS011;7700;48.654;9.070;2023-03-01T01:37:11;14.90;;;12.17;;
15198;SDS011;7700;48.654;9.070;2023-03-01T01:39:37;17.07;;;13.57;;
15198;SDS011;7700;48.654;9.070;2023-03-01T01:42:03;15.97;;;13.30;;
15198;SDS011;7700;48.654;9.070;2023-03-01T01:44:29;16.97;;;12.50;;
15198;SDS011;7700;48.654;9.070;2023-03-01T01:47:05;14.53;;;12.17;;
15198;SDS011;7700;48.654;9.070;2023-03-01T01:49:33;16.50;;;13.10;;
15198;SDS011;7700;48.654;9.070;2023-03-01T01:54:36;19.17;;;13.33;;
15198;SDS011;7700;48.654;9.070;2023-03-01T01:57:04;15.33;;;12.33;;
15198;SDS011;7700;48.654;9.070;2023-03-01T01:59:31;15.90;;;12.93;;
15198;SDS011;7700;48.654;9.070;2023-03-01T02:01:59;17.03;;;13.43;;
15198;SDS011;7700;48.654;9.070;2023-03-01T02:04:26;18.73;;;13.40;;
15198;SDS011;7700;48.654;9.070;2023-03-01T02:07:00;16.33;;;12.33;;
15198;SDS011;7700;48.654;9.070;2023-03-01T02:09:27;17.27;;;12.17;;
15198;SDS011;7700;48.654;9.070;2023-03-01T02:11:53;16.23;;;13.17;;
15198;SDS011;7700;48.654;9.070;2023-03-01T02:14:20;15.87;;;13.47;;
15198;SDS011;7700;48.654;9.070;2023-03-01T02:16:46;17.77;;;13.60;;
15198;SDS011;7700;48.654;9.070;2023-03-01T02:19:23;16.77;;;13.50;;
15198;SDS011;7700;48.654;9.070;2023-03-01T02:22:01;15.37;;;12.23;;
15198;SDS011;7700;48.654;9.070;2023-03-01T02:24:31;15.83;;;13.13;;
15198;SDS011;7700;48.654;9.070;2023-03-01T02:27:00;14.23;;;12.07;;
15198;SDS011;7700;48.654;9.070;2023-03-01T02:29:26;16.50;;;12.63;;
15198;SDS011;7700;48.654;9.070;2023-03-01T02:31:52;16.90;;;13.00;;
15198;SDS011;7700;48.654;9.070;2023-03-01T02:34:22;13.83;;;11.33;;
15198;SDS011;7700;48.654;9.070;2023-03-01T02:36:57;16.47;;;12.73;;
15198;SDS011;7700;48.654;9.070;2023-03-01T02:39:27;16.27;;;13.60;;
15198;SDS011;7700;48.654;9.070;2023-03-01T02:41:54;17.00;;;13.40;;
15198;SDS011;7700;48.654;9.070;2023-03-01T02:44:22;17.47;;;13.57;;
15198;SDS011;7700;48.654;9.070;2023-03-01T02:46:49;17.00;;;13.80;;
15198;SDS011;7700;48.654;9.070;2023-03-01T02:49:20;15.13;;;13.20;;
15198;SDS011;7700;48.654;9.070;2023-03-01T02:54:23;16.80;;;12.80;;
15198;SDS011;7700;48.654;9.070;2023-03-01T02:56:51;15.43;;;12.73;;
15198;SDS011;7700;48.654;9.070;2023-03-01T02:59:19;17.03;;;12.93;;
15198;SDS011;7700;48.654;9.070;2023-03-01T03:01:45;16.27;;;13.23;;
15198;SDS011;7700;48.654;9.070;2023-03-01T03:04:13;16.93;;;12.97;;
15198;SDS011;7700;48.654;9.070;2023-03-01T03:06:52;17.90;;;14.00;;
15198;SDS011;7700;48.654;9.070;2023-03-01T03:09:18;16.73;;;13.00;;
15198;SDS011;7700;48.654;9.070;2023-03-01T03:11:44;15.07;;;12.50;;
15198;SDS011;7700;48.654;9.070;2023-03-01T03:14:10;18.90;;;13.27;;
15198;SDS011;7700;48.654;9.070;2023-03-01T03:16:43;17.10;;;14.00;;
15198;SDS011;7700;48.654;9.070;2023-03-01T03:19:10;14.83;;;12.57;;
15198;SDS011;7700;48.654;9.070;2023-03-01T03:21:36;17.00;;;13.37;;
15198;SDS011;7700;48.654;9.070;2023-03-01T03:24:02;17.03;;;13.43;;
15198;SDS011;7700;48.654;9.070;2023-03-01T03:26:28;16.77;;;13.60;;
15198;SDS011;7700;48.654;9.070;2023-03-01T03:28:54;18.20;;;13.93;;
15198;SDS011;7700;48.654;9.070;2023-03-01T03:31:21;18.57;;;13.27;;
15198;SDS011;7700;48.654;9.070;2023-03-01T03:33:47;17.80;;;14.17;;
15198;SDS011;7700;48.654;9.070;2023-03-01T03:36:16;15.70;;;13.03;;
15198;SDS011;7700;48.654;9.070;2023-03-01T03:38:43;17.10;;;13.27;;
15198;SDS011;7700;48.654;9.070;2023-03-01T03:41:10;15.67;;;12.97;;
15198;SDS011;7700;48.654;9.070;2023-03-01T03:43:37;19.13;;;14.47;;
15198;SDS011;7700;48.654;9.070;2023-03-01T03:46:04;18.70;;;13.90;;
15198;SDS011;7700;48.654;9.070;2023-03-01T03:48:30;19.23;;;13.67;;
15198;SDS011;7700;48.654;9.070;2023-03-01T03:50:57;18.50;;;14.23;;
15198;SDS011;7700;48.654;9.070;2023-03-01T03:53:23;18.70;;;14.47;;
15198;SDS011;7700;48.654;9.070;2023-03-01T03:55:50;19.23;;;13.50;;
15198;SDS011;7700;48.654;9.070;2023-03-01T03:58:16;17.80;;;13.63;;
15198;SDS011;7700;48.654;9.070;2023-03-01T04:00:44;17.73;;;13.80;;
15198;SDS011;7700;48.654;9.070;2023-03-01T04:03:11;15.13;;;13.07;;
15198;SDS011;7700;48.654;9.070;2023-03-01T04:05:38;21.73;;;14.67;;
15198;SDS011;7700;48.654;9.070;2023-03-01T04:08:05;17.07;;;14.13;;
15198;SDS011;7700;48.654;9.070;2023-03-01T04:10:35;17.80;;;13.67;;
15198;SDS011;7700;48.654;9.070;2023-03-01T04:13:02;18.60;;;14.20;;
15198;SDS011;7700;48.654;9.070;2023-03-01T04:15:28;19.77;;;14.77;;
15198;SDS011;7700;48.654;9.070;2023-03-01T04:17:54;18.67;;;14.00;;
15198;SDS011;7700;48.654;9.070;2023-03-01T04:20:21;18.53;;;14.40;;
15198;SDS011;7700;48.654;9.070;2023-03-01T04:23:12;19.73;;;14.13;;
15198;SDS011;7700;48.654;9.070;2023-03-01T04:25:52;16.70;;;13.83;;
15198;SDS011;7700;48.654;9.070;2023-03-01T04:30:55;19.63;;;14.13;;
15198;SDS011;7700;48.654;9.070;2023-03-01T04:33:21;18.73;;;13.97;;
15198;SDS011;7700;48.654;9.070;2023-03-01T04:35:48;18.40;;;14.17;;
15198;SDS011;7700;48.654;9.070;2023-03-01T04:38:14;21.43;;;14.13;;
15198;SDS011;7700;48.654;9.070;2023-03-01T04:40:40;16.93;;;14.30;;
15198;SDS011;7700;48.654;9.070;2023-03-01T04:43:08;18.50;;;14.23;;
15198;SDS011;7700;48.654;9.070;2023-03-01T04:45:34;20.53;;;14.47;;
15198;SDS011;7700;48.654;9.070;2023-03-01T04:48:00;19.17;;;14.47;;
15198;SDS011;7700;48.654;9.070;2023-03-01T04:50:26;17.87;;;13.63;;
15198;SDS011;7700;48.654;9.070;2023-03-01T04:52:52;19.27;;;15.63;;
15198;SDS011;7700;48.654;9.070;2023-03-01T04:55:19;19.77;;;15.07;;
15198;SDS011;7700;48.654;9.070;2023-03-01T04:57:45;18.63;;;14.90;;
15198;SDS011;7700;48.654;9.070;2023-03-01T05:00:11;21.13;;;14.27;;
15198;SDS011;7700;48.654;9.070;2023-03-01T05:02:56;19.77;;;15.07;;
15198;SDS011;7700;48.654;9.070;2023-03-01T05:05:27;18.27;;;14.27;;
15198;SDS011;7700;48.654;9.070;2023-03-01T05:07:55;17.67;;;14.17;;
15198;SDS011;7700;48.654;9.070;2023-03-01T05:10:21;17.23;;;14.13;;
15198;SDS011;7700;48.654;9.070;2023-03-01T05:12:47;19.83;;;14.37;;
15198;SDS011;7700;48.654;9.070;2023-03-01T05:15:13;19.67;;;15.33;;
15198;SDS011;7700;48.654;9.070;2023-03-01T05:17:39;19.47;;;16.13;;
15198;SDS011;7700;48.654;9.070;2023-03-01T05:20:06;19.83;;;14.90;;
15198;SDS011;7700;48.654;9.070;2023-03-01T05:22:35;19.57;;;15.57;;
15198;SDS011;7700;48.654;9.070;2023-03-01T05:25:01;17.43;;;13.70;;
15198;SDS011;7700;48.654;9.070;2023-03-01T05:27:27;17.77;;;14.40;;
15198;SDS011;7700;48.654;9.070;2023-03-01T05:29:54;20.97;;;17.37;;
15198;SDS011;7700;48.654;9.070;2023-03-01T05:32:20;18.60;;;16.60;;
15198;SDS011;7700;48.654;9.070;2023-03-01T05:34:46;23.70;;;17.53;;
15198;SDS011;7700;48.654;9.070;2023-03-01T05:37:12;20.80;;;16.17;;
15198;SDS011;7700;48.654;9.070;2023-03-01T05:39:39;19.37;;;14.93;;
15198;SDS011;7700;48.654;9.070;2023-03-01T05:42:09;17.70;;;14.40;;
15198;SDS011;7700;48.654;9.070;2023-03-01T05:44:36;18.97;;;15.53;;
15198;SDS011;7700;48.654;9.070;2023-03-01T05:47:02;22.97;;;16.70;;
15198;SDS011;7700;48.654;9.070;2023-03-01T05:49:27;21.17;;;16.07;;
15198;SDS011;7700;48.654;9.070;2023-03-01T05:51:55;21.17;;;16.27;;
15198;SDS011;7700;48.654;9.070;2023-03-01T05:54:21;20.93;;;16.17;;
15198;SDS011;7700;48.654;9.070;2023-03-01T05:56:47;20.93;;;17.00;;
15198;SDS011;7700;48.654;9.070;2023-03-01T05:59:13;22.37;;;17.83;;
15198;SDS011;7700;48.654;9.070;2023-03-01T06:01:41;22.07;;;17.47;;
15198;SDS011;7700;48.654;9.070;2023-03-01T06:04:07;21.63;;;16.80;;
15198;SDS011;7700;48.654;9.070;2023-03-01T06:06:33;20.37;;;15.50;;
15198;SDS011;7700;48.654;9.070;2023-03-01T06:09:00;20.40;;;16.40;;
15198;SDS011;7700;48.654;9.070;2023-03-01T06:11:26;21.43;;;15.07;;
15198;SDS011;7700;48.654;9.070;2023-03-01T06:13:51;22.97;;;16.43;;
15198;SDS011;7700;48.654;9.070;2023-03-01T06:16:18;20.07;;;15.63;;
15198;SDS011;7700;48.654;9.070;2023-03-01T06:18:44;20.60;;;16.70;;
15198;SDS011;7700;48.654;9.070;2023-03-01T06:21:09;26.70;;;23.00;;
15198;SDS011;7700;48.654;9.070;2023-03-01T06:23:36;20.47;;;17.33;;
15198;SDS011;7700;48.654;9.070;2023-03-01T06:26:06;20.80;;;15.93;;
15198;SDS011;7700;48.654;9.070;2023-03-01T06:28:32;20.27;;;16.03;;
15198;SDS011;7700;48.654;9.070;2023-03-01T06:30:59;18.53;;;14.90;;
15198;SDS011;7700;48.654;9.070;2023-03-01T06:33:25;20.63;;;15.20;;
15198;SDS011;7700;48.654;9.070;2023-03-01T06:35:51;20.03;;;15.50;;
15198;SDS011;7700;48.654;9.070;2023-03-01T06:38:17;22.83;;;15.67;;
15198;SDS011;7700;48.654;9.070;2023-03-01T06:40:44;20.10;;;15.17;;
15198;SDS011;7700;48.654;9.070;2023-03-01T06:43:10;17.83;;;15.00;;
15198;SDS011;7700;48.654;9.070;2023-03-01T06:45:36;20.50;;;15.53;;
15198;SDS011;7700;48.654;9.070;2023-03-01T06:48:05;19.13;;;15.20;;
15198;SDS011;7700;48.654;9.070;2023-03-01T06:50:32;20.40;;;15.50;;
15198;SDS011;7700;48.654;9.070;2023-03-01T06:52:58;21.57;;;16.57;;
15198;SDS011;7700;48.654;9.070;2023-03-01T06:55:24;20.30;;;15.27;;
15198;SDS011;7700;48.654;9.070;2023-03-01T06:57:56;19.63;;;15.27;;
15198;SDS011;7700;48.654;9.070;2023-03-01T07:00:23;20.67;;;15.30;;
15198;SDS011;7700;48.654;9.070;2023-03-01T07:02:49;19.73;;;16.13;;
15198;SDS011;7700;48.654;9.070;2023-03-01T07:05:15;20.17;;;14.77;;
15198;SDS011;7700;48.654;9.070;2023-03-01T07:07:41;19.53;;;14.53;;
15198;SDS011;7700;48.654;9.070;2023-03-01T07:10:07;19.00;;;14.83;;
15198;SDS011;7700;48.654;9.070;2023-03-01T07:12:33;20.77;;;14.93;;
15198;SDS011;7700;48.654;9.070;2023-03-01T07:14:59;17.97;;;14.50;;
15198;SDS011;7700;48.654;9.070;2023-03-01T07:17:25;17.23;;;14.10;;
15198;SDS011;7700;48.654;9.070;2023-03-01T07:19:51;18.13;;;14.70;;
15198;SDS011;7700;48.654;9.070;2023-03-01T07:22:17;17.50;;;13.93;;
15198;SDS011;7700;48.654;9.070;2023-03-01T07:24:43;18.70;;;13.97;;
15198;SDS011;7700;48.654;9.070;2023-03-01T07:27:09;17.00;;;13.57;;
15198;SDS011;7700;48.654;9.070;2023-03-01T07:29:35;17.30;;;15.50;;
15198;SDS011;7700;48.654;9.070;2023-03-01T07:32:02;15.70;;;14.03;;
15198;SDS011;7700;48.654;9.070;2023-03-01T07:34:28;15.93;;;14.23;;
15198;SDS011;7700;48.654;9.070;2023-03-01T07:36:54;16.90;;;14.20;;
15198;SDS011;7700;48.654;9.070;2023-03-01T07:39:20;18.23;;;14.33;;
15198;SDS011;7700;48.654;9.070;2023-03-01T07:41:48;17.00;;;14.10;;
15198;SDS011;7700;48.654;9.070;2023-03-01T07:44:14;18.60;;;14.80;;
15198;SDS011;7700;48.654;9.070;2023-03-01T07:46:41;16.90;;;14.93;;
15198;SDS011;7700;48.654;9.070;2023-03-01T07:49:07;18.30;;;16.03;;
15198;SDS011;7700;48.654;9.070;2023-03-01T07:51:33;19.80;;;14.80;;
15198;SDS011;7700;48.654;9.070;2023-03-01T07:53:59;17.73;;;14.07;;
15198;SDS011;7700;48.654;9.070;2023-03-01T07:56:25;18.23;;;14.97;;
15198;SDS011;7700;48.654;9.070;2023-03-01T07:58:51;17.43;;;15.00;;
15198;SDS011;7700;48.654;9.070;2023-03-01T08:01:18;18.00;;;14.67;;
15198;SDS011;7700;48.654;9.070;2023-03-01T08:03:44;16.53;;;14.60;;
15198;SDS011;7700;48.654;9.070;2023-03-01T08:06:11;18.93;;;15.17;;
15198;SDS011;7700;48.654;9.070;2023-03-01T08:08:38;17.07;;;15.27;;
15198;SDS011;7700;48.654;9.070;2023-03-01T08:11:05;16.93;;;13.93;;
15198;SDS011;7700;48.654;9.070;2023-03-01T08:13:31;16.83;;;14.87;;
15198;SDS011;7700;48.654;9.070;2023-03-01T08:16:04;18.13;;;15.27;;
15198;SDS011;7700;48.654;9.070;2023-03-01T08:18:31;15.90;;;14.20;;
15198;SDS011;7700;48.654;9.070;2023-03-01T08:21:03;17.97;;;14.93;;
15198;SDS011;7700;48.654;9.070;2023-03-01T08:23:30;16.03;;;13.70;;
15198;SDS011;7700;48.654;9.070;2023-03-01T08:26:02;17.23;;;15.43;;
15198;SDS011;7700;48.654;9.070;2023-03-01T08:28:28;17.57;;;14.63;;
15198;SDS011;7700;48.654;9.070;2023-03-01T08:30:54;16.63;;;14.83;;
15198;SDS011;7700;48.654;9.070;2023-03-01T08:33:20;18.50;;;15.50;;
15198;SDS011;7700;48.654;9.070;2023-03-01T08:35:46;17.00;;;15.20;;
15198;SDS011;7700;48.654;9.070;2023-03-01T08:38:12;19.47;;;16.43;;
15198;SDS011;7700;48.654;9.070;2023-03-01T08:40:38;17.53;;;15.73;;
15198;SDS011;7700;48.654;9.070;2023-03-01T08:43:04;22.87;;;16.40;;
15198;SDS011;7700;48.654;9.070;2023-03-01T08:45:30;16.33;;;14.43;;
15198;SDS011;7700;48.654;9.070;2023-03-01T08:47:56;21.90;;;15.87;;
15198;SDS011;7700;48.654;9.070;2023-03-01T08:50:23;17.43;;;15.40;;
15198;SDS011;7700;48.654;9.070;2023-03-01T08:52:49;17.97;;;14.90;;
15198;SDS011;7700;48.654;9.070;2023-03-01T08:55:15;17.67;;;14.97;;
15198;SDS011;7700;48.654;9.070;2023-03-01T08:57:42;18.00;;;15.97;;
15198;SDS011;7700;48.654;9.070;2023-03-01T09:00:08;15.90;;;14.20;;
15198;SDS011;7700;48.654;9.070;2023-03-01T09:02:35;16.27;;;13.43;;
15198;SDS011;7700;48.654;9.070;2023-03-01T09:05:01;16.43;;;14.73;;
15198;SDS011;7700;48.654;9.070;2023-03-01T09:07:28;17.20;;;15.13;;
15198;SDS011;7700;48.654;9.070;2023-03-01T09:09:54;16.93;;;15.13;;
15198;SDS011;7700;48.654;9.070;2023-03-01T09:12:20;16.90;;;14.47;;
15198;SDS011;7700;48.654;9.070;2023-03-01T09:14:47;16.67;;;14.87;;
15198;SDS011;7700;48.654;9.070;2023-03-01T09:17:13;16.23;;;14.53;;
15198;SDS011;7700;48.654;9.070;2023-03-01T09:19:39;17.97;;;16.07;;
15198;SDS011;7700;48.654;9.070;2023-03-01T09:22:05;18.93;;;15.37;;
15198;SDS011;7700;48.654;9.070;2023-03-01T09:24:31;17.83;;;15.67;;
15198;SDS011;7700;48.654;9.070;2023-03-01T09:26:57;16.47;;;14.77;;
15198;SDS011;7700;48.654;9.070;2023-03-01T09:29:23;29.93;;;18.80;;
15198;SDS011;7700;48.654;9.070;2023-03-01T09:31:49;22.37;;;17.20;;
15198;SDS011;7700;48.654;9.070;2023-03-01T09:34:15;17.27;;;15.43;;
15198;SDS011;7700;48.654;9.070;2023-03-01T09:36:44;19.43;;;15.80;;
15198;SDS011;7700;48.654;9.070;2023-03-01T09:39:10;17.13;;;15.33;;
15198;SDS011;7700;48.654;9.070;2023-03-01T09:47:09;16.87;;;15.03;;
15198;SDS011;7700;48.654;9.070;2023-03-01T09:49:39;17.03;;;15.10;;
15198;SDS011;7700;48.654;9.070;2023-03-01T09:54:40;17.03;;;14.60;;
15198;SDS011;7700;48.654;9.070;2023-03-01T09:57:13;16.50;;;14.80;;
15198;SDS011;7700;48.654;9.070;2023-03-01T10:03:44;17.50;;;13.63;;
15198;SDS011;7700;48.654;9.070;2023-03-01T10:06:14;17.13;;;14.47;;
15198;SDS011;7700;48.654;9.070;2023-03-01T10:08:41;16.97;;;15.27;;
15198;SDS011;7700;48.654;9.070;2023-03-01T10:11:30;17.20;;;13.90;;
15198;SDS011;7700;48.654;9.070;2023-03-01T10:13:57;16.67;;;14.97;;
15198;SDS011;7700;48.654;9.070;2023-03-01T10:16:27;21.03;;;15.23;;
15198;SDS011;7700;48.654;9.070;2023-03-01T10:18:56;16.33;;;14.73;;
15198;SDS011;7700;48.654;9.070;2023-03-01T10:21:25;18.90;;;15.83;;
15198;SDS011;7700;48.654;9.070;2023-03-01T10:23:51;17.93;;;14.87;;
15198;SDS011;7700;48.654;9.070;2023-03-01T10:29:22;17.93;;;16.00;;
15198;SDS011;7700;48.654;9.070;2023-03-01T10:31:50;16.70;;;14.93;;
15198;SDS011;7700;48.654;9.070;2023-03-01T10:34:35;18.10;;;15.53;;
15198;SDS011;7700;48.654;9.070;2023-03-01T10:37:08;17.53;;;14.70;;
15198;SDS011;7700;48.654;9.070;2023-03-01T10:39:34;17.40;;;15.10;;
15198;SDS011;7700;48.654;9.070;2023-03-01T10:42:02;17.60;;;15.80;;
15198;SDS011;7700;48.654;9.070;2023-03-01T10:47:01;16.30;;;14.60;;
15198;SDS011;7700;48.654;9.070;2023-03-01T10:49:27;17.20;;;15.50;;
15198;SDS011;7700;48.654;9.070;2023-03-01T10:51:53;17.00;;;15.20;;
15198;SDS011;7700;48.654;9.070;2023-03-01T10:54:29;17.37;;;15.57;;
15198;SDS011;7700;48.654;9.070;2023-03-01T10:56:57;17.97;;;14.60;;
15198;SDS011;7700;48.654;9.070;2023-03-01T11:04:46;18.30;;;15.80;;
15198;SDS011;7700;48.654;9.070;2023-03-01T11:07:21;17.30;;;14.50;;
15198;SDS011;7700;48.654;9.070;2023-03-01T11:09:47;17.57;;;15.57;;
15198;SDS011;7700;48.654;9.070;2023-03-01T11:12:14;16.83;;;15.03;;
15198;SDS011;7700;48.654;9.070;2023-03-01T11:14:46;15.63;;;14.10;;
15198;SDS011;7700;48.654;9.070;2023-03-01T11:17:18;15.93;;;14.30;;
15198;SDS011;7700;48.654;9.070;2023-03-01T11:20:06;15.23;;;13.63;;
15198;SDS011;7700;48.654;9.070;2023-03-01T11:22:35;16.53;;;14.77;;
15198;SDS011;7700;48.654;9.070;2023-03-01T11:25:02;16.57;;;14.80;;
15198;SDS011;7700;48.654;9.070;2023-03-01T11:27:29;15.77;;;14.07;;
15198;SDS011;7700;48.654;9.070;2023-03-01T11:35:26;15.97;;;14.37;;
15198;SDS011;7700;48.654;9.070;2023-03-01T11:40:24;17.10;;;13.47;;
15198;SDS011;7700;48.654;9.070;2023-03-01T11:45:19;15.10;;;13.50;;
15198;SDS011;7700;48.654;9.070;2023-03-01T11:50:25;16.03;;;14.33;;
15198;SDS011;7700;48.654;9.070;2023-03-01T11:53:05;16.93;;;15.23;;
15198;SDS011;7700;48.654;9.070;2023-03-01T11:55:46;15.20;;;13.60;;
15198;SDS011;7700;48.654;9.070;2023-03-01T11:58:17;17.27;;;14.53;;
15198;SDS011;7700;48.654;9.070;2023-03-01T12:03:28;16.83;;;14.73;;
15198;SDS011;7700;48.654;9.070;2023-03-01T12:11:16;18.87;;;15.00;;
15198;SDS011;7700;48.654;9.070;2023-03-01T12:19:06;17.93;;;16.00;;
15198;SDS011;7700;48.654;9.070;2023-03-01T12:21:42;16.93;;;15.13;;
15198;SDS011;7700;48.654;9.070;2023-03-01T12:26:51;18.73;;;15.30;;
15198;SDS011;7700;48.654;9.070;2023-03-01T12:32:00;16.07;;;14.43;;
15198;SDS011;7700;48.654;9.070;2023-03-01T12:36:58;17.30;;;14.90;;
15198;SDS011;7700;48.654;9.070;2023-03-01T12:42:31;15.80;;;14.30;;
15198;SDS011;7700;48.654;9.070;2023-03-01T12:47:28;15.60;;;14.00;;
15198;SDS011;7700;48.654;9.070;2023-03-01T12:49:58;16.10;;;14.50;;
15198;SDS011;7700;48.654;9.070;2023-03-01T12:52:30;16.23;;;14.53;;
15198;SDS011;7700;48.654;9.070;2023-03-01T12:54:59;16.80;;;15.03;;
15198;SDS011;7700;48.654;9.070;2023-03-01T12:57:31;15.97;;;14.37;;
15198;SDS011;7700;48.654;9.070;2023-03-01T13:03:16;15.27;;;13.63;;
15198;SDS011;7700;48.654;9.070;2023-03-01T13:08:16;16.47;;;14.23;;
15198;SDS011;7700;48.654;9.070;2023-03-01T13:11:19;17.05;;;14.43;;
15198;SDS011;7700;48.654;9.070;2023-03-01T13:13:37;15.27;;;13.77;;
15198;SDS011;7700;48.654;9.070;2023-03-01T13:18:48;16.33;;;14.73;;
15198;SDS011;7700;48.654;9.070;2023-03-01T13:21:14;16.07;;;14.47;;
15198;SDS011;7700;48.654;9.070;2023-03-01T13:23:54;18.17;;;14.53;;
15198;SDS011;7700;48.654;9.070;2023-03-01T13:26:20;16.03;;;13.70;;
15198;SDS011;7700;48.654;9.070;2023-03-01T13:33:40;16.13;;;14.53;;
15198;SDS011;7700;48.654;9.070;2023-03-01T13:36:07;14.77;;;13.27;;
15198;SDS011;7700;48.654;9.070;2023-03-01T13:41:16;15.00;;;13.43;;
15198;SDS011;7700;48.654;9.070;2023-03-01T13:43:43;15.00;;;13.47;;
15198;SDS011;7700;48.654;9.070;2023-03-01T13:46:11;16.13;;;14.43;;
15198;SDS011;7700;48.654;9.070;2023-03-01T13:48:40;16.07;;;14.37;;
15198;SDS011;7700;48.654;9.070;2023-03-01T13:51:09;16.90;;;13.50;;
15198;SDS011;7700;48.654;9.070;2023-03-01T13:53:39;14.90;;;13.40;;
15198;SDS011;7700;48.654;9.070;2023-03-01T13:56:13;15.40;;;13.83;;
15198;SDS011;7700;48.654;9.070;2023-03-01T13:59:23;14.90;;;13.37;;
15198;SDS011;7700;48.654;9.070;2023-03-01T14:01:33;15.30;;;13.70;;
15198;SDS011;7700;48.654;9.070;2023-03-01T14:04:00;15.37;;;12.87;;
15198;SDS011;7700;48.654;9.070;2023-03-01T14:06:30;14.73;;;13.23;;
15198;SDS011;7700;48.654;9.070;2023-03-01T14:09:01;14.47;;;12.93;;
15198;SDS011;7700;48.654;9.070;2023-03-01T14:11:33;15.83;;;13.10;;
15198;SDS011;7700;48.654;9.070;2023-03-01T14:16:46;13.97;;;12.37;;
15198;SDS011;7700;48.654;9.070;2023-03-01T14:19:18;13.80;;;12.40;;
15198;SDS011;7700;48.654;9.070;2023-03-01T14:24:28;14.60;;;12.97;;
15198;SDS011;7700;48.654;9.070;2023-03-01T14:26:55;14.57;;;13.00;;
15198;SDS011;7700;48.654;9.070;2023-03-01T14:29:25;14.17;;;12.70;;
15198;SDS011;7700;48.654;9.070;2023-03-01T14:31:51;13.33;;;11.93;;
15198;SDS011;7700;48.654;9.070;2023-03-01T14:34:21;15.17;;;12.40;;
15198;SDS011;7700;48.654;9.070;2023-03-01T14:36:48;14.23;;;12.70;;
15198;SDS011;7700;48.654;9.070;2023-03-01T14:39:19;16.03;;;14.37;;
15198;SDS011;7700;48.654;9.070;2023-03-01T14:41:46;16.63;;;14.80;;
15198;SDS011;7700;48.654;9.070;2023-03-01T14:44:14;17.70;;;15.60;;
15198;SDS011;7700;48.654;9.070;2023-03-01T14:46:41;16.97;;;15.23;;
15198;SDS011;7700;48.654;9.070;2023-03-01T14:51:39;18.13;;;15.30;;
15198;SDS011;7700;48.654;9.070;2023-03-01T14:54:11;17.83;;;15.13;;
15198;SDS011;7700;48.654;9.070;2023-03-01T14:56:43;17.33;;;15.47;;
15198;SDS011;7700;48.654;9.070;2023-03-01T14:59:09;20.53;;;16.83;;
15198;SDS011;7700;48.654;9.070;2023-03-01T15:01:37;18.33;;;14.83;;
15198;SDS011;7700;48.654;9.070;2023-03-01T15:04:03;16.80;;;15.00;;
15198;SDS011;7700;48.654;9.070;2023-03-01T15:06:30;18.67;;;15.57;;
15198;SDS011;7700;48.654;9.070;2023-03-01T15:08:56;16.67;;;14.93;;
15198;SDS011;7700;48.654;9.070;2023-03-01T15:11:30;19.77;;;15.57;;
15198;SDS011;7700;48.654;9.070;2023-03-01T15:13:57;16.90;;;15.17;;
15198;SDS011;7700;48.654;9.070;2023-03-01T15:19:00;17.90;;;16.00;;
15198;SDS011;7700;48.654;9.070;2023-03-01T15:21:27;17.57;;;15.07;;
15198;SDS011;7700;48.654;9.070;2023-03-01T15:23:56;17.50;;;14.50;;
15198;SDS011;7700;48.654;9.070;2023-03-01T15:26:24;19.57;;;16.50;;
15198;SDS011;7700;48.654;9.070;2023-03-01T15:28:51;18.43;;;16.40;;
15198;SDS011;7700;48.654;9.070;2023-03-01T15:31:21;18.37;;;16.40;;
15198;SDS011;7700;48.654;9.070;2023-03-01T15:33:48;19.43;;;16.63;;
15198;SDS011;7700;48.654;9.070;2023-03-01T15:38:59;16.20;;;14.30;;
15198;SDS011;7700;48.654;9.070;2023-03-01T15:41:30;18.97;;;15.20;;
15198;SDS011;7700;48.654;9.070;2023-03-01T15:43:56;15.83;;;13.47;;
15198;SDS011;7700;48.654;9.070;2023-03-01T15:46:27;18.47;;;15.10;;
15198;SDS011;7700;48.654;9.070;2023-03-01T15:49:04;20.23;;;14.60;;
15198;SDS011;7700;48.654;9.070;2023-03-01T15:51:37;17.20;;;15.37;;
15198;SDS011;7700;48.654;9.070;2023-03-01T15:54:05;20.07;;;15.40;;
15198;SDS011;7700;48.654;9.070;2023-03-01T15:56:32;18.73;;;15.80;;
15198;SDS011;7700;48.654;9.070;2023-03-01T15:58:59;19.70;;;16.03;;
15198;SDS011;7700;48.654;9.070;2023-03-01T16:01:26;18.10;;;15.40;;
15198;SDS011;7700;48.654;9.070;2023-03-01T16:03:52;22.77;;;16.07;;
15198;SDS011;7700;48.654;9.070;2023-03-01T16:06:19;18.30;;;15.37;;
15198;SDS011;7700;48.654;9.070;2023-03-01T16:08:45;17.77;;;15.30;;
15198;SDS011;7700;48.654;9.070;2023-03-01T16:11:13;17.63;;;15.70;;
15198;SDS011;7700;48.654;9.070;2023-03-01T16:13:40;17.53;;;15.57;;
15198;SDS011;7700;48.654;9.070;2023-03-01T16:16:06;18.70;;;14.93;;
15198;SDS011;7700;48.654;9.070;2023-03-01T16:18:32;17.97;;;16.07;;